Time;durP1;ratioP1;P1;durP2;ratioP2;P2;SDS_P1;SDS_P2;PMS_P1;PMS_P2;Temp;Humidity;BMP_temperature;BMP_pressure;BME280_temperature;BME280_humidity;BME280_pressure;Samples;Min_cycle;Max_cycle;Signal;HPM_P1;HPM_P2
2021/10/30 00:00:15;;;;;;;0.30;0.30;;;;;;;9.14;83.34;100549.16;5132090;27;20051;-70
2021/10/30 00:02:41;;;;;;;0.30;0.30;;;;;;;9.14;83.09;100550.03;5114020;27;20153;-68
2021/10/30 00:05:11;;;;;;;0.30;0.30;;;;;;;9.12;83.09;100557.38;5131945;27;20082;-72
2021/10/30 00:07:39;;;;;;;0.20;0.20;;;;;;;9.13;83.04;100561.78;5131449;27;20465;-74
2021/10/30 00:10:06;;;;;;;0.30;0.30;;;;;;;9.15;83.02;100559.84;5116558;27;20114;-70
2021/10/30 00:12:33;;;;;;;0.30;0.30;;;;;;;9.10;82.96;100544.97;5101201;27;20084;-68
2021/10/30 00:14:59;;;;;;;0.30;0.30;;;;;;;9.17;82.82;100557.00;5136424;27;20055;-67
2021/10/30 00:17:25;;;;;;;0.20;0.20;;;;;;;9.14;82.68;100554.53;5136097;27;20451;-70
2021/10/30 00:19:51;;;;;;;0.30;0.30;;;;;;;9.11;82.90;100544.88;5117842;27;20547;-72
2021/10/30 00:22:17;;;;;;;0.30;0.30;;;;;;;9.16;82.64;100558.00;5136386;27;20051;-76
2021/10/30 00:24:43;;;;;;;0.30;0.30;;;;;;;9.18;82.16;100545.25;5116498;27;20073;-69
2021/10/30 00:27:10;;;;;;;0.30;0.30;;;;;;;9.12;82.56;100545.72;5114210;27;20495;-71
2021/10/30 00:29:39;;;;;;;0.30;0.30;;;;;;;9.16;82.57;100552.59;5113225;27;20471;-70
2021/10/30 00:32:07;;;;;;;0.30;0.30;;;;;;;9.13;82.56;100558.22;5131975;27;20050;-73
2021/10/30 00:34:33;;;;;;;0.30;0.30;;;;;;;9.10;82.59;100553.06;5096320;27;20055;-69
2021/10/30 00:36:58;;;;;;;0.30;0.30;;;;;;;9.10;82.43;100543.13;5091912;28;20522;-69
2021/10/30 00:39:24;;;;;;;0.35;0.35;;;;;;;9.21;82.17;100550.38;5111119;28;20056;-69
2021/10/30 00:41:52;;;;;;;0.30;0.30;;;;;;;9.24;81.81;100565.47;5075863;28;20063;-70
2021/10/30 00:44:19;;;;;;;0.30;0.30;;;;;;;9.25;81.90;100557.28;5075816;28;20055;-72
2021/10/30 00:46:48;;;;;;;0.30;0.30;;;;;;;9.22;81.94;100557.53;5098622;27;20613;-70
2021/10/30 00:49:15;;;;;;;0.30;0.30;;;;;;;9.22;81.76;100560.22;5095899;27;20063;-69
2021/10/30 00:51:43;;;;;;;0.30;0.30;;;;;;;9.15;81.93;100550.88;5112948;27;20047;-70
2021/10/30 00:54:10;;;;;;;0.30;0.30;;;;;;;9.21;81.86;100561.19;5113128;27;20546;-69
2021/10/30 00:56:36;;;;;;;0.30;0.30;;;;;;;9.21;81.86;100557.63;5131056;27;20052;-69
2021/10/30 00:59:05;;;;;;;0.30;0.30;;;;;;;9.14;81.83;100549.16;5098713;28;20070;-69
2021/10/30 01:01:31;;;;;;;0.30;0.30;;;;;;;9.19;81.98;100563.16;5134611;28;20150;-72
2021/10/30 01:03:58;;;;;;;0.30;0.30;;;;;;;9.22;81.81;100559.38;5116009;28;20093;-69
2021/10/30 01:06:24;;;;;;;0.30;0.30;;;;;;;9.24;81.70;100549.28;5114925;28;20051;-70
2021/10/30 01:08:50;;;;;;;0.30;0.30;;;;;;;9.24;81.55;100566.34;5115504;28;20210;-70
2021/10/30 01:11:16;;;;;;;0.30;0.30;;;;;;;9.18;81.58;100550.66;5066379;28;20094;-70
2021/10/30 01:13:42;;;;;;;0.30;0.30;;;;;;;9.25;81.45;100556.41;5116243;28;20116;-70
2021/10/30 01:16:10;;;;;;;0.30;0.30;;;;;;;9.27;81.40;100549.91;5134627;28;20050;-68
2021/10/30 01:18:36;;;;;;;0.30;0.30;;;;;;;9.23;81.49;100547.59;5101725;27;20054;-70
2021/10/30 01:21:02;;;;;;;0.30;0.30;;;;;;;9.25;81.46;100546.50;5140226;27;20157;-72
2021/10/30 01:23:29;;;;;;;0.30;0.30;;;;;;;9.32;81.33;100554.94;5103505;27;20095;-68
2021/10/30 01:25:59;;;;;;;0.30;0.30;;;;;;;9.30;81.24;100555.06;5120936;27;20055;-71
2021/10/30 01:28:27;;;;;;;0.30;0.30;;;;;;;9.27;81.21;100549.91;5104615;27;20066;-72
2021/10/30 01:30:53;;;;;;;0.30;0.30;;;;;;;9.22;81.29;100546.72;5122218;27;20058;-69
2021/10/30 01:33:21;;;;;;;0.30;0.30;;;;;;;9.25;81.17;100554.59;5122058;27;20043;-69
2021/10/30 01:35:47;;;;;;;0.30;0.30;;;;;;;9.28;80.79;100557.00;5122013;27;20069;-69
2021/10/30 01:38:14;;;;;;;0.30;0.30;;;;;;;9.31;81.13;100564.88;5121505;27;20150;-69
2021/10/30 01:40:47;;;;;;;0.30;0.30;;;;;;;9.30;81.08;100562.31;5104330;27;20059;-71
2021/10/30 01:43:15;;;;;;;0.30;0.30;;;;;;;9.32;81.11;100561.19;5121116;27;20055;-70
2021/10/30 01:45:42;;;;;;;0.30;0.30;;;;;;;9.31;80.96;100572.13;5136607;27;20039;-68
2021/10/30 01:48:08;;;;;;;0.30;0.30;;;;;;;9.31;81.07;100567.56;5135295;27;20182;-67
2021/10/30 01:50:34;;;;;;;0.30;0.30;;;;;;;9.34;81.01;100572.72;5116304;27;20080;-71
2021/10/30 01:53:02;;;;;;;0.30;0.30;;;;;;;9.36;80.94;100565.38;5133562;27;20143;-68
2021/10/30 01:55:31;;;;;;;0.30;0.30;;;;;;;9.37;80.72;100572.50;5115710;27;20043;-69
2021/10/30 01:57:57;;;;;;;0.30;0.30;;;;;;;9.36;80.82;100565.38;5098824;27;20055;-71
2021/10/30 02:00:23;;;;;;;0.30;0.30;;;;;;;9.37;80.73;100567.09;5115606;27;20107;-70
2021/10/30 02:02:48;;;;;;;0.20;0.20;;;;;;;9.39;80.57;100573.22;5133863;27;20047;-69
2021/10/30 02:05:14;;;;;;;0.20;0.20;;;;;;;9.44;80.57;100582.81;5115474;27;20491;-69
2021/10/30 02:07:40;;;;;;;0.30;0.30;;;;;;;9.42;80.55;100581.06;5133666;27;20116;-67
2021/10/30 02:10:08;;;;;;;0.30;0.30;;;;;;;9.41;80.40;100578.50;5114987;27;20522;-68
2021/10/30 02:12:34;;;;;;;0.30;0.30;;;;;;;9.48;80.37;100578.91;5099527;27;20078;-70
2021/10/30 02:15:01;;;;;;;0.20;0.20;;;;;;;9.44;80.31;100582.81;5100773;27;20063;-71
2021/10/30 02:17:29;;;;;;;0.30;0.30;;;;;;;9.43;80.16;100592.72;5136675;27;20051;-69
2021/10/30 02:19:54;;;;;;;0.30;0.30;;;;;;;9.46;80.71;100583.53;5096339;28;20047;-69
2021/10/30 02:22:21;;;;;;;0.30;0.30;;;;;;;9.41;80.23;100579.38;5112624;28;20054;-68
2021/10/30 02:24:47;;;;;;;0.30;0.30;;;;;;;9.41;80.54;100584.75;5114046;28;20051;-67
2021/10/30 02:27:13;;;;;;;0.30;0.30;;;;;;;9.42;80.20;100581.06;5095370;28;20101;-68
2021/10/30 02:29:39;;;;;;;0.20;0.20;;;;;;;9.42;80.20;100586.47;5119979;27;20055;-70
2021/10/30 02:32:05;;;;;;;0.20;0.20;;;;;;;9.42;80.28;100578.38;5133633;27;20135;-71
2021/10/30 02:34:31;;;;;;;0.30;0.30;;;;;;;9.42;80.46;100588.31;5115233;27;20054;-69
2021/10/30 02:36:58;;;;;;;0.25;0.25;;;;;;;9.47;80.45;100587.94;5133847;27;20140;-68
2021/10/30 02:39:23;;;;;;;0.28;0.28;;;;;;;9.41;80.30;100587.47;5114484;27;20059;-68
2021/10/30 02:41:50;;;;;;;0.30;0.30;;;;;;;9.43;80.57;100581.94;5114900;27;20396;-71
2021/10/30 02:44:17;;;;;;;0.20;0.20;;;;;;;9.42;80.35;100586.47;5133163;27;20447;-69
2021/10/30 02:46:43;;;;;;;0.30;0.30;;;;;;;9.39;80.61;100592.09;5133387;27;20138;-71
2021/10/30 02:49:09;;;;;;;0.30;0.30;;;;;;;9.41;80.37;100590.16;5114585;27;20267;-68
2021/10/30 02:51:35;;;;;;;0.30;0.30;;;;;;;9.45;80.69;100584.53;5097961;27;20059;-68
2021/10/30 02:54:01;;;;;;;0.30;0.30;;;;;;;9.42;80.55;100591.88;5133040;27;20055;-70
2021/10/30 02:56:27;;;;;;;0.30;0.30;;;;;;;9.45;80.16;100595.31;5132793;27;20043;-69
2021/10/30 02:58:53;;;;;;;0.30;0.30;;;;;;;9.45;80.18;100598.03;5114232;27;20043;-68
2021/10/30 03:01:19;;;;;;;0.30;0.30;;;;;;;9.45;80.26;100611.53;5114196;27;20126;-69
2021/10/30 03:03:44;;;;;;;0.28;0.28;;;;;;;9.45;80.40;100601.56;5132763;27;20051;-68
2021/10/30 03:06:10;;;;;;;0.30;0.30;;;;;;;9.42;80.32;100602.66;5132282;27;20054;-70
2021/10/30 03:08:36;;;;;;;0.30;0.30;;;;;;;9.40;80.11;100599.25;5132633;27;20047;-70
2021/10/30 03:11:02;;;;;;;0.30;0.30;;;;;;;9.46;80.16;100610.53;5132680;27;20475;-68
2021/10/30 03:13:29;;;;;;;0.30;0.30;;;;;;;9.45;80.25;100611.53;5132873;27;20054;-67
2021/10/30 03:15:55;;;;;;;0.30;0.30;;;;;;;9.45;80.14;100606.13;5090600;28;20134;-69
2021/10/30 03:18:21;;;;;;;0.30;0.30;;;;;;;9.44;80.22;100604.41;5093646;28;20163;-70
2021/10/30 03:20:48;;;;;;;0.30;0.30;;;;;;;9.44;80.01;100607.97;5093674;28;20051;-68
2021/10/30 03:23:14;;;;;;;0.30;0.30;;;;;;;9.45;79.72;100611.53;5060413;28;20079;-67
2021/10/30 03:25:40;;;;;;;0.30;0.30;;;;;;;9.46;80.41;100615.94;5115520;27;20488;-69
2021/10/30 03:28:06;;;;;;;0.30;0.30;;;;;;;9.39;79.98;100602.91;5113768;27;20051;-70
2021/10/30 03:30:33;;;;;;;0.30;0.30;;;;;;;9.44;80.10;100617.91;5131863;27;20387;-67
2021/10/30 03:32:59;;;;;;;0.30;0.30;;;;;;;9.48;80.10;100616.69;5098361;27;20100;-66
2021/10/30 03:35:25;;;;;;;0.30;0.30;;;;;;;9.45;79.89;100616.91;5115182;27;20082;-69
2021/10/30 03:37:51;;;;;;;0.30;0.30;;;;;;;9.53;79.83;100614.47;5098228;27;20453;-67
2021/10/30 05:36:12;;;;;;;0.40;0.40;;;;;;;9.64;79.24;100600.97;5094338;28;20070;-71
2021/10/30 05:38:54;;;;;;;0.50;0.50;;;;;;;10.11;77.55;100593.59;5095734;28;20059;-69
2021/10/30 05:41:20;;;;;;;0.60;0.60;;;;;;;10.97;74.26;100597.28;5075032;28;20134;-70
2021/10/30 05:43:46;;;;;;;0.63;0.63;;;;;;;11.61;71.74;100599.84;5108188;28;20048;-70
2021/10/30 05:46:12;;;;;;;0.50;0.50;;;;;;;12.01;69.80;100604.47;5088732;28;20063;-69
2021/10/30 05:48:38;;;;;;;0.50;0.50;;;;;;;12.11;69.30;100594.53;5098789;28;20052;-70
2021/10/30 05:51:05;;;;;;;0.50;0.50;;;;;;;12.51;68.02;100599.06;5096766;28;20474;-69
2021/10/30 05:53:31;;;;;;;0.52;0.52;;;;;;;12.58;67.49;100605.63;5090835;28;20096;-75
2021/10/30 05:55:57;;;;;;;0.60;0.60;;;;;;;12.82;66.71;100601.63;5096239;28;20147;-72
2021/10/30 05:58:24;;;;;;;0.60;0.60;;;;;;;13.28;65.38;100606.38;5110104;28;20164;-70
2021/10/30 06:00:50;;;;;;;0.60;0.60;;;;;;;13.30;65.04;100600.78;5108404;28;20048;-73
2021/10/30 06:03:16;;;;;;;0.60;0.60;;;;;;;13.58;64.04;100607.16;5078770;28;20061;-72
2021/10/30 06:05:41;;;;;;;0.60;0.60;;;;;;;13.70;63.48;100606.81;5048151;28;20063;-74
2021/10/30 06:08:08;;;;;;;0.70;0.70;;;;;;;13.95;62.57;100612.59;5087910;28;20275;-72
2021/10/30 06:10:34;;;;;;;0.70;0.70;;;;;;;13.97;62.63;100602.47;5107653;28;20051;-72
2021/10/30 06:13:00;;;;;;;0.60;0.60;;;;;;;14.58;60.66;100612.72;5057345;28;20044;-71
2021/10/30 06:15:26;;;;;;;0.70;0.70;;;;;;;14.57;60.64;100600.13;5079063;28;20135;-72
2021/10/30 06:17:53;;;;;;;0.60;0.60;;;;;;;15.18;58.83;100621.16;5071857;28;20048;-69
2021/10/30 06:20:19;;;;;;;0.60;0.60;;;;;;;14.98;59.13;100608.69;5056528;28;20519;-70
2021/10/30 06:22:45;;;;;;;0.60;0.60;;;;;;;15.30;57.99;100612.72;5059305;28;20044;-79
2021/10/30 06:25:12;;;;;;;0.75;0.75;;;;;;;15.49;57.33;100607.06;5098025;28;20512;-76
2021/10/30 06:27:38;;;;;;;0.70;0.70;;;;;;;15.60;57.12;100614.97;5067548;28;20051;-73
2021/10/30 06:30:09;;;;;;;0.70;0.70;;;;;;;16.83;54.02;100621.03;5075853;28;20066;-74
2021/10/30 06:32:36;;;;;;;0.70;0.70;;;;;;;16.57;54.04;100612.94;5099903;28;20059;-74
2021/10/30 06:35:02;;;;;;;0.63;0.63;;;;;;;16.97;53.32;100609.44;5090496;28;20488;-72
2021/10/30 06:37:29;;;;;;;0.70;0.70;;;;;;;18.28;50.45;100609.25;5099100;28;20071;-71
2021/10/30 06:39:55;;;;;;;0.60;0.60;;;;;;;18.13;49.89;100616.50;5101969;28;20453;-72
2021/10/30 06:42:21;;;;;;;0.70;0.70;;;;;;;17.39;51.65;100619.34;5081711;28;20040;-71
2021/10/30 06:44:48;;;;;;;0.70;0.70;;;;;;;18.19;50.19;100616.63;5100124;28;20070;-73
2021/10/30 06:47:14;;;;;;;0.70;0.70;;;;;;;17.68;51.34;100623.44;5097830;28;20052;-74
2021/10/30 06:49:41;;;;;;;0.60;0.60;;;;;;;17.25;51.78;100600.91;5068792;28;20516;-67
2021/10/30 06:52:09;;;;;;;0.80;0.80;;;;;;;16.85;53.25;100613.50;5097263;27;20172;-77
2021/10/30 06:54:36;;;;;;;0.70;0.70;;;;;;;16.84;53.33;100609.09;5096622;28;20420;-74
2021/10/30 06:57:05;;;;;;;0.60;0.60;;;;;;;16.81;53.18;100603.94;5106109;28;20526;-73
2021/10/30 06:59:31;;;;;;;0.70;0.70;;;;;;;16.59;54.46;100616.31;5085472;28;20147;-79
2021/10/30 07:01:57;;;;;;;0.70;0.70;;;;;;;16.96;53.35;100618.66;5085752;28;20040;-77
2021/10/30 07:04:23;;;;;;;0.85;0.85;;;;;;;16.79;53.80;100623.25;5083040;28;20538;-76
2021/10/30 07:06:51;;;;;;;0.30;0.30;;;;;;;16.53;54.58;100623.31;5081667;28;20566;-75
2021/10/30 07:09:16;;;;;;;0.90;0.90;;;;;;;18.00;50.88;100615.19;5074492;28;20054;-79
2021/10/30 07:11:44;;;;;;;0.70;0.70;;;;;;;18.29;50.25;100610.97;5074464;28;20051;-77
2021/10/30 07:14:11;;;;;;;0.30;0.30;;;;;;;18.71;48.78;100617.94;5064928;28;20130;-76
2021/10/30 07:16:37;;;;;;;0.20;0.20;;;;;;;17.93;50.68;100616.91;5068354;28;20059;-73
2021/10/30 07:19:03;;;;;;;0.30;0.30;;;;;;;17.80;51.41;100616.59;5089183;28;20466;-75
2021/10/30 07:21:29;;;;;;;0.30;0.30;;;;;;;16.28;55.51;100624.25;5101713;28;20051;-75
2021/10/30 07:23:55;;;;;;;0.28;0.28;;;;;;;14.83;59.91;100629.31;5092655;28;20047;-79
2021/10/30 07:26:21;;;;;;;0.30;0.30;;;;;;;14.08;62.12;100618.56;5055681;28;20169;-76
2021/10/30 07:28:47;;;;;;;0.30;0.30;;;;;;;13.49;64.90;100625.19;5094700;28;20059;-79
2021/10/30 07:31:13;;;;;;;0.30;0.30;;;;;;;14.23;62.62;100625.22;5079109;28;20051;-79
2021/10/30 07:33:39;;;;;;;0.30;0.30;;;;;;;13.35;65.34;100612.94;5049876;28;20056;-77
2021/10/30 07:36:05;;;;;;;0.30;0.30;;;;;;;12.71;68.10;100627.91;5092325;28;20051;-75
2021/10/30 07:38:31;;;;;;;0.30;0.30;;;;;;;12.53;68.83;100622.31;5101056;28;20071;-76
2021/10/30 07:40:57;;;;;;;0.30;0.30;;;;;;;12.48;69.39;100637.28;5108709;28;20063;-73
2021/10/30 07:43:23;;;;;;;0.20;0.20;;;;;;;12.86;68.64;100635.63;5086349;28;20059;-76
2021/10/30 07:45:49;;;;;;;0.30;0.30;;;;;;;12.85;68.47;100631.22;5102453;28;20048;-76
2021/10/30 07:48:15;;;;;;;0.30;0.30;;;;;;;12.73;68.84;100634.06;5271956;22;20537;-74
2021/10/30 07:50:41;;;;;;;0.30;0.30;;;;;;;12.50;69.91;100636.13;5059279;28;20048;-71
2021/10/30 07:53:07;;;;;;;0.30;0.30;;;;;;;12.37;70.63;100632.00;5008993;28;20052;-74
2021/10/30 07:55:35;;;;;;;0.20;0.20;;;;;;;12.18;71.24;100639.06;5029178;28;20494;-74
2021/10/30 07:58:02;;;;;;;0.30;0.30;;;;;;;12.28;70.75;100639.94;5046207;28;20384;-80
2021/10/30 08:00:28;;;;;;;0.30;0.30;;;;;;;12.71;69.35;100630.63;5048740;28;20461;-75
2021/10/30 08:02:54;;;;;;;0.30;0.30;;;;;;;13.02;68.22;100622.38;5006520;28;20216;-74
2021/10/30 08:05:20;;;;;;;0.50;0.50;;;;;;;13.21;67.27;100632.34;5024544;28;20079;-77
2021/10/30 08:07:47;;;;;;;0.30;0.30;;;;;;;13.39;66.66;100635.22;5013805;28;20044;-79
2021/10/30 08:10:13;;;;;;;1.10;1.10;;;;;;;14.21;64.16;100626.38;5030978;28;20057;-74
2021/10/30 08:12:39;;;;;;;0.70;0.70;;;;;;;13.71;65.21;100624.88;5030731;28;20468;-75
2021/10/30 08:15:07;;;;;;;0.30;0.30;;;;;;;13.29;67.18;100631.66;5039985;28;20117;-74
2021/10/30 08:17:33;;;;;;;0.30;0.30;;;;;;;13.50;66.15;100637.78;5054479;28;20044;-75
2021/10/30 08:20:00;;;;;;;0.40;0.40;;;;;;;13.51;66.19;100623.19;5024995;28;20049;-80
2021/10/30 08:22:29;;;;;;;0.47;0.47;;;;;;;13.79;65.35;100637.72;5056131;28;20057;-75
2021/10/30 08:24:54;;;;;;;0.80;0.80;;;;;;;14.36;63.34;100630.28;5061558;28;20065;-78
2021/10/30 08:27:23;;;;;;;0.60;0.60;;;;;;;15.97;58.52;100632.09;5046826;28;20121;-77
2021/10/30 08:29:49;;;;;;;0.43;0.43;;;;;;;16.08;56.91;100640.84;5045035;28;20426;-73
2021/10/30 08:32:14;;;;;;;1.08;1.08;;;;;;;16.56;55.57;100628.47;5016940;28;20052;-78
2021/10/30 08:34:40;;;;;;;0.57;0.57;;;;;;;15.43;59.14;100641.28;5030112;28;20517;-76
2021/10/30 08:37:07;;;;;;;0.35;0.35;;;;;;;14.45;61.07;100634.84;5009399;28;20052;-76
2021/10/30 08:39:34;;;;;;;0.32;0.32;;;;;;;13.69;64.07;100635.00;5035503;28;20426;-77
2021/10/30 08:42:00;;;;;;;0.30;0.30;;;;;;;13.87;63.48;100639.69;5038328;28;20045;-76
2021/10/30 08:44:26;;;;;;;1.02;1.02;;;;;;;15.22;59.44;100646.19;5039514;28;20076;-76
2021/10/30 08:46:53;;;;;;;0.38;0.38;;;;;;;15.41;58.70;100642.44;5030352;28;20477;-78
2021/10/30 08:49:20;;;;;;;0.30;0.30;;;;;;;14.29;61.81;100634.63;5032847;28;20471;-75
2021/10/30 08:51:46;;;;;;;0.77;0.77;;;;;;;14.65;61.42;100642.91;5032765;28;20149;-77
2021/10/30 08:54:16;;;;;;;1.30;1.30;;;;;;;16.56;56.38;100647.56;5011727;28;20061;-78
2021/10/30 08:56:51;;;;;;;0.30;0.30;;;;;;;16.21;56.33;100642.31;5038030;28;20151;-77
2021/10/30 08:59:39;;;;;;;0.30;0.30;;;;;;;14.53;60.71;100638.69;5047882;28;20565;-77
2021/10/30 09:02:08;;;;;;;0.50;0.50;;;;;;;14.42;61.06;100639.72;5036266;28;20057;-78
2021/10/30 09:04:38;;;;;;;1.30;1.30;;;;;;;15.44;59.29;100636.69;5033044;28;20064;-79
2021/10/30 09:07:09;;;;;;;0.30;0.30;;;;;;;15.19;58.66;100655.53;5026101;28;20056;-79
2021/10/30 09:09:37;;;;;;;0.30;0.30;;;;;;;14.00;61.81;100651.06;5028231;28;20057;-78
2021/10/30 09:12:05;;;;;;;0.30;0.30;;;;;;;13.34;64.23;100637.50;5035658;28;20131;-77
2021/10/30 09:14:33;;;;;;;0.30;0.30;;;;;;;12.88;66.27;100641.78;5029635;28;20057;-77
2021/10/30 09:17:19;;;;;;;0.40;0.40;;;;;;;12.99;65.88;100638.94;5012211;28;20060;-79
2021/10/30 09:19:52;;;;;;;1.10;1.10;;;;;;;14.71;60.92;100645.03;5028327;28;20053;-79
2021/10/30 09:22:19;;;;;;;0.50;0.50;;;;;;;14.91;58.88;100643.00;5031168;28;20365;-79
2021/10/30 09:24:58;;;;;;;1.00;1.00;;;;;;;16.36;55.02;100654.28;5043586;28;20528;-78
2021/10/30 09:27:51;;;;;;;1.00;1.00;;;;;;;17.52;51.18;100646.19;5043834;28;20058;-80
2021/10/30 09:30:22;;;;;;;1.00;1.00;;;;;;;16.92;52.37;100633.66;5026132;28;20134;-79
2021/10/30 09:32:56;;;;;;;0.90;0.90;;;;;;;16.96;52.45;100643.22;5036721;28;20045;-77
2021/10/30 09:35:41;;;;;;;0.90;0.90;;;;;;;17.38;51.80;100650.44;5034666;28;20053;-79
2021/10/30 09:38:11;;;;;;;0.50;0.50;;;;;;;17.19;51.67;100645.34;5013145;28;20529;-78
2021/10/30 09:40:37;;;;;;;0.20;0.20;;;;;;;16.87;52.12;100636.91;5042321;28;20103;-76
2021/10/30 09:43:11;;;;;;;0.60;0.60;;;;;;;15.82;55.74;100645.47;5047127;28;20049;-77
2021/10/30 09:45:39;;;;;;;0.90;0.90;;;;;;;16.27;54.58;100660.72;5055913;28;20053;-79
2021/10/30 09:48:04;;;;;;;1.00;1.00;;;;;;;18.45;48.98;100649.22;5035412;28;20087;-77
2021/10/30 09:50:32;;;;;;;0.80;0.80;;;;;;;18.86;47.42;100645.44;5016050;28;20053;-77
2021/10/30 09:53:28;;;;;;;0.80;0.80;;;;;;;19.34;46.01;100646.97;5030501;28;20045;-79
2021/10/30 09:55:56;;;;;;;0.80;0.80;;;;;;;20.09;44.83;100640.63;5042116;28;20068;-76
2021/10/30 09:58:40;;;;;;;0.80;0.80;;;;;;;20.41;43.34;100644.88;5043038;28;20512;-73
2021/10/30 10:01:07;;;;;;;0.40;0.40;;;;;;;18.73;47.58;100637.81;5015480;28;20370;-77
2021/10/30 10:03:33;;;;;;;0.70;0.70;;;;;;;18.30;48.12;100632.69;5038916;28;20061;-77
2021/10/30 10:06:05;;;;;;;0.70;0.70;;;;;;;17.65;49.80;100640.19;5002247;28;20108;-77
2021/10/30 10:08:33;;;;;;;0.80;0.80;;;;;;;18.87;47.23;100647.16;5021374;28;20054;-76
2021/10/30 10:10:59;;;;;;;0.88;0.88;;;;;;;19.52;45.73;100644.78;5023865;28;20045;-72
2021/10/30 10:13:39;;;;;;;0.70;0.70;;;;;;;18.42;47.58;100637.75;5011890;28;20050;-71
2021/10/30 10:16:18;;;;;;;0.80;0.80;;;;;;;19.77;45.46;100644.56;5028881;28;20148;-69
2021/10/30 10:18:45;;;;;;;0.73;0.73;;;;;;;20.09;43.79;100639.78;5032566;28;20492;-71
2021/10/30 10:21:14;;;;;;;0.60;0.60;;;;;;;20.55;42.60;100645.06;5020954;28;20457;-67
2021/10/30 10:23:42;;;;;;;0.70;0.70;;;;;;;20.35;42.86;100637.38;5026280;28;20540;-67
2021/10/30 10:26:09;;;;;;;0.68;0.68;;;;;;;21.43;40.85;100636.56;5039404;28;20053;-69
2021/10/30 10:28:38;;;;;;;0.73;0.73;;;;;;;21.18;40.65;100637.97;5034559;28;20054;-66
2021/10/30 10:31:13;;;;;;;0.63;0.63;;;;;;;20.85;41.54;100638.47;5044022;28;20041;-73
2021/10/30 10:33:40;;;;;;;0.60;0.60;;;;;;;21.43;40.63;100636.56;5016277;28;20049;-75
2021/10/30 10:36:20;;;;;;;0.70;0.70;;;;;;;21.97;39.71;100625.94;4994715;28;20473;-76
2021/10/30 10:38:59;;;;;;;0.50;0.50;;;;;;;21.20;40.80;100630.34;5017027;28;20061;-70
2021/10/30 10:41:37;;;;;;;0.60;0.60;;;;;;;21.01;41.54;100626.38;5043670;28;20156;-71
2021/10/30 10:44:07;;;;;;;0.55;0.55;;;;;;;20.57;42.23;100624.59;5008005;28;20061;-72
2021/10/30 10:46:40;;;;;;;0.50;0.50;;;;;;;20.65;41.83;100626.38;5044235;28;20056;-69
2021/10/30 10:49:20;;;;;;;;;;;;;;;19.47;44.51;100628.00;5046223;28;20140;-67
2021/10/30 10:52:01;;;;;;;0.60;0.60;;;;;;;19.01;46.26;100627.16;5042017;28;19975;-69
2021/10/30 10:54:48;;;;;;;0.60;0.60;;;;;;;18.78;46.61;100627.16;5022038;28;20106;-77
2021/10/30 10:57:44;;;;;;;0.55;0.55;;;;;;;19.42;44.95;100624.13;5023107;28;20100;-71
2021/10/30 11:00:21;;;;;;;0.50;0.50;;;;;;;18.14;47.72;100618.22;5025663;28;20076;-71
2021/10/30 11:02:50;;;;;;;0.60;0.60;;;;;;;18.64;46.41;100625.16;5039215;28;20144;-70
2021/10/30 11:05:25;;;;;;;0.50;0.50;;;;;;;18.42;47.31;100627.66;5043920;28;20107;-70
2021/10/30 11:07:50;;;;;;;0.50;0.50;;;;;;;18.52;46.50;100621.97;5043516;28;20130;-71
2021/10/30 11:10:19;;;;;;;0.50;0.50;;;;;;;18.00;48.46;100623.38;5044896;28;20097;-70
2021/10/30 11:13:00;;;;;;;0.50;0.50;;;;;;;17.53;49.52;100624.13;5026448;28;20055;-70
2021/10/30 11:15:29;;;;;;;0.60;0.60;;;;;;;17.76;49.33;100626.16;5022281;28;20061;-70
2021/10/30 11:20:35;;;;;;;0.50;0.50;;;;;;;18.32;47.83;100610.63;5043137;28;20058;-70
2021/10/30 11:23:04;;;;;;;0.50;0.50;;;;;;;17.82;48.50;100609.91;5024905;28;20049;-70
2021/10/30 11:25:30;;;;;;;0.50;0.50;;;;;;;17.40;49.68;100621.06;5020705;28;20053;-71
2021/10/30 11:27:57;;;;;;;0.50;0.50;;;;;;;17.77;49.10;100622.41;5051728;28;20127;-70
2021/10/30 11:30:41;;;;;;;0.50;0.50;;;;;;;17.06;50.26;100613.88;5032023;28;20071;-70
2021/10/30 11:33:28;;;;;;;0.60;0.60;;;;;;;18.29;47.82;100621.91;5002417;28;20671;-70
2021/10/30 11:36:05;;;;;;;0.50;0.50;;;;;;;19.01;45.83;100614.34;5044275;28;20064;-70
2021/10/30 11:38:39;;;;;;;0.40;0.40;;;;;;;17.24;49.99;100601.94;5034948;28;20064;-70
2021/10/30 11:41:17;;;;;;;0.50;0.50;;;;;;;17.15;50.57;100616.59;5035774;28;20064;-71
2021/10/30 11:43:45;;;;;;;0.60;0.60;;;;;;;17.27;50.26;100615.25;5040545;28;20132;-71
2021/10/30 11:46:14;;;;;;;0.50;0.50;;;;;;;17.79;49.63;100613.00;5026596;28;20488;-72
2021/10/30 11:48:49;;;;;;;0.50;0.50;;;;;;;18.63;47.61;100616.09;5040127;28;20076;-70
2021/10/30 11:51:19;;;;;;;0.50;0.50;;;;;;;19.28;45.47;100612.06;5036139;28;20132;-71
2021/10/30 11:53:46;;;;;;;0.43;0.43;;;;;;;19.02;45.80;100607.81;5032253;28;20049;-71
2021/10/30 11:56:13;;;;;;;0.40;0.40;;;;;;;19.02;46.06;100607.81;5035617;28;20052;-71
2021/10/30 11:58:50;;;;;;;0.40;0.40;;;;;;;18.59;46.59;100605.69;5033913;28;20128;-71
2021/10/30 12:01:21;;;;;;;0.40;0.40;;;;;;;18.77;45.95;100598.91;5033983;28;20080;-70
2021/10/30 12:03:49;;;;;;;0.40;0.40;;;;;;;19.18;45.56;100605.97;5020061;28;20050;-71
2021/10/30 12:06:16;;;;;;;0.40;0.40;;;;;;;19.06;45.25;100607.47;5032458;28;20576;-70
2021/10/30 12:08:42;;;;;;;0.40;0.40;;;;;;;18.65;46.56;100602.19;5034646;28;20071;-70
2021/10/30 12:11:09;;;;;;;0.40;0.40;;;;;;;18.02;47.94;100604.88;5024891;28;20068;-70
2021/10/30 12:13:35;;;;;;;0.40;0.40;;;;;;;17.86;48.45;100604.94;5032507;28;20073;-71
2021/10/30 12:16:02;;;;;;;0.40;0.40;;;;;;;17.97;48.10;100612.78;5034862;28;20096;-70
2021/10/30 12:18:29;;;;;;;0.40;0.40;;;;;;;17.66;49.09;100609.06;5051301;28;20081;-70
2021/10/30 12:20:58;;;;;;;0.40;0.40;;;;;;;17.10;50.48;100598.84;5035194;28;20091;-71
2021/10/30 12:23:24;;;;;;;0.40;0.40;;;;;;;16.83;51.37;100612.84;5021174;28;20125;-71
2021/10/30 12:25:50;;;;;;;0.40;0.40;;;;;;;16.74;51.63;100605.63;5026439;28;20053;-71
2021/10/30 12:28:30;;;;;;;0.40;0.40;;;;;;;17.42;50.30;100608.06;5040706;28;20144;-71
2021/10/30 12:30:55;;;;;;;0.40;0.40;;;;;;;16.98;51.11;100605.69;5036149;28;20544;-71
2021/10/30 12:33:21;;;;;;;0.40;0.40;;;;;;;16.21;53.06;100601.38;5016516;28;20076;-70
2021/10/30 12:35:50;;;;;;;0.40;0.40;;;;;;;16.69;52.17;100605.28;5021894;28;20049;-71
2021/10/30 12:38:21;;;;;;;0.55;0.40;;;;;;;15.79;54.10;100602.19;5039082;28;20395;-73
2021/10/30 12:40:51;;;;;;;0.40;0.40;;;;;;;15.84;54.20;100606.13;5042407;28;20208;-71
2021/10/30 12:43:23;;;;;;;0.30;0.30;;;;;;;15.58;55.17;100603.41;5040924;28;20052;-70
2021/10/30 12:45:52;;;;;;;0.30;0.30;;;;;;;15.16;56.43;100595.91;5030101;28;20061;-70
2021/10/30 12:48:23;;;;;;;0.40;0.40;;;;;;;15.10;56.92;100598.41;5028528;28;20060;-70
2021/10/30 12:50:58;;;;;;;0.30;0.30;;;;;;;15.28;56.24;100598.38;5002608;28;20061;-70
2021/10/30 12:53:26;;;;;;;0.30;0.30;;;;;;;15.52;55.35;100595.84;5015851;28;20148;-71
2021/10/30 12:56:06;;;;;;;0.30;0.30;;;;;;;14.68;58.25;100586.28;5029035;28;20053;-71
2021/10/30 12:59:02;;;;;;;0.30;0.30;;;;;;;14.57;58.48;100596.56;5030172;28;20053;-70
2021/10/30 13:01:32;;;;;;;0.30;0.30;;;;;;;14.44;59.07;100594.16;5029050;28;20087;-70
2021/10/30 13:04:02;;;;;;;0.40;0.40;;;;;;;14.41;59.14;100594.50;5038634;28;20088;-70
2021/10/30 13:06:29;;;;;;;0.30;0.30;;;;;;;14.27;59.37;100592.28;5050458;28;20060;-71
2021/10/30 13:09:00;;;;;;;0.30;0.30;;;;;;;14.11;60.20;100601.94;5049844;28;20137;-72
2021/10/30 13:11:26;;;;;;;0.30;0.30;;;;;;;14.05;60.24;100596.25;5033402;28;20065;-70
2021/10/30 13:13:52;;;;;;;0.30;0.30;;;;;;;13.99;60.34;100611.31;5045251;28;20464;-71
2021/10/30 13:16:18;;;;;;;0.30;0.30;;;;;;;13.62;61.75;100609.44;5016550;28;20153;-71
2021/10/30 13:18:46;;;;;;;0.30;0.30;;;;;;;13.58;61.81;100610.72;4999724;28;20064;-71
2021/10/30 13:21:19;;;;;;;0.30;0.30;;;;;;;13.23;63.02;100604.06;5034025;28;20081;-71
2021/10/30 13:23:47;;;;;;;0.30;0.30;;;;;;;12.72;64.63;100604.34;5037695;28;20053;-71
2021/10/30 13:26:14;;;;;;;0.30;0.30;;;;;;;12.59;65.50;100607.34;5052021;28;20065;-71
2021/10/30 13:28:39;;;;;;;0.30;0.30;;;;;;;12.45;65.82;100603.16;5052496;28;20144;-71
2021/10/30 13:31:06;;;;;;;0.20;0.20;;;;;;;12.11;66.83;100605.38;5053674;28;20060;-71
2021/10/30 13:33:32;;;;;;;0.20;0.20;;;;;;;11.85;68.33;100609.53;5034690;28;20151;-69